sensor_id;sensor_type;location;lat;lon;timestamp;pressure;altitude;pressure_sealevel;temperature;humidity
50434;BME280;36361;38.954;-9.002;2023-01-26T00:00:10;101922.84;;;8.93;75.23
50434;BME280;36361;38.954;-9.002;2023-01-26T00:01:20;101925.81;;;9.14;74.79
50434;BME280;36361;38.954;-9.002;2023-01-26T00:02:23;101929.41;;;9.15;77.18
50434;BME280;36361;38.954;-9.002;2023-01-26T00:03:27;101925.50;;;9.17;71.81
50434;BME280;36361;38.954;-9.002;2023-01-26T00:04:28;101927.81;;;9.28;71.11
50434;BME280;36361;38.954;-9.002;2023-01-26T00:05:28;101924.00;;;9.06;71.91
50434;BME280;36361;38.954;-9.002;2023-01-26T00:06:29;101927.53;;;9.15;72.39
50434;BME280;36361;38.954;-9.002;2023-01-26T00:07:30;101923.44;;;9.19;72.99
50434;BME280;36361;38.954;-9.002;2023-01-26T00:08:44;101921.69;;;9.34;74.96
50434;BME280;36361;38.954;-9.002;2023-01-26T00:09:45;101919.63;;;9.36;74.93
50434;BME280;36361;38.954;-9.002;2023-01-26T00:10:46;101917.34;;;9.17;71.60
50434;BME280;36361;38.954;-9.002;2023-01-26T00:11:49;101925.75;;;9.30;72.73
50434;BME280;36361;38.954;-9.002;2023-01-26T00:12:53;101921.59;;;9.51;71.60
50434;BME280;36361;38.954;-9.002;2023-01-26T00:13:56;101916.28;;;9.26;71.07
50434;BME280;36361;38.954;-9.002;2023-01-26T00:14:57;101916.38;;;9.41;71.58
50434;BME280;36361;38.954;-9.002;2023-01-26T00:15:57;101914.38;;;9.35;73.36
50434;BME280;36361;38.954;-9.002;2023-01-26T00:16:58;101913.78;;;9.48;71.73
50434;BME280;36361;38.954;-9.002;2023-01-26T00:17:59;101913.75;;;9.56;69.56
50434;BME280;36361;38.954;-9.002;2023-01-26T00:19:00;101913.06;;;9.62;70.35
50434;BME280;36361;38.954;-9.002;2023-01-26T00:20:01;101912.69;;;9.65;69.86
50434;BME280;36361;38.954;-9.002;2023-01-26T00:21:02;101919.88;;;9.50;70.15
50434;BME280;36361;38.954;-9.002;2023-01-26T00:22:03;101915.44;;;9.57;69.46
50434;BME280;36361;38.954;-9.002;2023-01-26T00:23:03;101911.44;;;9.45;69.33
50434;BME280;36361;38.954;-9.002;2023-01-26T00:24:04;101914.63;;;9.17;70.86
50434;BME280;36361;38.954;-9.002;2023-01-26T00:25:05;101902.41;;;9.13;71.30
50434;BME280;36361;38.954;-9.002;2023-01-26T00:26:08;101900.25;;;9.00;71.34
50434;BME280;36361;38.954;-9.002;2023-01-26T00:27:11;101899.09;;;8.95;72.36
50434;BME280;36361;38.954;-9.002;2023-01-26T00:28:12;101895.06;;;8.82;73.13
50434;BME280;36361;38.954;-9.002;2023-01-26T00:29:12;101896.94;;;8.74;72.21
50434;BME280;36361;38.954;-9.002;2023-01-26T00:30:13;101904.25;;;8.73;73.18
50434;BME280;36361;38.954;-9.002;2023-01-26T00:31:20;101897.50;;;8.61;74.44
50434;BME280;36361;38.954;-9.002;2023-01-26T00:32:21;101900.50;;;8.82;73.05
50434;BME280;36361;38.954;-9.002;2023-01-26T00:33:22;101895.53;;;8.94;72.61
50434;BME280;36361;38.954;-9.002;2023-01-26T00:34:23;101892.69;;;8.88;73.89
50434;BME280;36361;38.954;-9.002;2023-01-26T00:35:29;101894.63;;;9.10;72.93
50434;BME280;36361;38.954;-9.002;2023-01-26T00:36:33;101896.31;;;9.11;73.37
50434;BME280;36361;38.954;-9.002;2023-01-26T00:37:37;101887.44;;;8.78;75.70
50434;BME280;36361;38.954;-9.002;2023-01-26T00:38:40;101895.44;;;8.71;78.07
50434;BME280;36361;38.954;-9.002;2023-01-26T00:39:45;101895.25;;;8.73;78.55
50434;BME280;36361;38.954;-9.002;2023-01-26T00:40:48;101891.44;;;8.35;81.52
50434;BME280;36361;38.954;-9.002;2023-01-26T00:41:49;101893.78;;;8.38;81.44
50434;BME280;36361;38.954;-9.002;2023-01-26T00:43:08;101898.53;;;7.87;86.02
50434;BME280;36361;38.954;-9.002;2023-01-26T00:44:09;101886.50;;;8.06;86.69
50434;BME280;36361;38.954;-9.002;2023-01-26T00:45:10;101889.72;;;8.17;84.76
50434;BME280;36361;38.954;-9.002;2023-01-26T00:46:11;101905.28;;;7.91;86.09
50434;BME280;36361;38.954;-9.002;2023-01-26T00:47:13;101906.59;;;7.62;89.58
50434;BME280;36361;38.954;-9.002;2023-01-26T00:48:14;101897.09;;;7.50;90.49
50434;BME280;36361;38.954;-9.002;2023-01-26T00:49:20;101895.88;;;7.36;92.26
50434;BME280;36361;38.954;-9.002;2023-01-26T00:50:21;101894.31;;;7.26;92.90
50434;BME280;36361;38.954;-9.002;2023-01-26T00:51:23;101883.13;;;7.29;92.36
50434;BME280;36361;38.954;-9.002;2023-01-26T00:52:24;101887.72;;;7.28;91.16
50434;BME280;36361;38.954;-9.002;2023-01-26T00:53:24;101881.16;;;7.47;90.28
50434;BME280;36361;38.954;-9.002;2023-01-26T00:54:27;101880.00;;;7.66;88.92
50434;BME280;36361;38.954;-9.002;2023-01-26T00:55:28;101882.25;;;7.79;87.44
50434;BME280;36361;38.954;-9.002;2023-01-26T00:56:33;101871.56;;;7.77;87.76
50434;BME280;36361;38.954;-9.002;2023-01-26T00:57:34;101875.44;;;7.66;88.74
50434;BME280;36361;38.954;-9.002;2023-01-26T00:58:36;101873.75;;;7.65;87.71
50434;BME280;36361;38.954;-9.002;2023-01-26T00:59:37;101870.00;;;7.66;88.31
50434;BME280;36361;38.954;-9.002;2023-01-26T01:00:38;101863.25;;;7.95;86.33
50434;BME280;36361;38.954;-9.002;2023-01-26T01:01:38;101864.97;;;7.96;85.39
50434;BME280;36361;38.954;-9.002;2023-01-26T01:02:40;101862.44;;;7.78;86.93
50434;BME280;36361;38.954;-9.002;2023-01-26T01:03:41;101871.56;;;7.61;88.03
50434;BME280;36361;38.954;-9.002;2023-01-26T01:04:41;101868.00;;;7.77;86.70
50434;BME280;36361;38.954;-9.002;2023-01-26T01:05:42;101876.72;;;7.38;88.98
50434;BME280;36361;38.954;-9.002;2023-01-26T01:06:46;101876.22;;;7.34;91.17
50434;BME280;36361;38.954;-9.002;2023-01-26T01:07:47;101873.69;;;7.33;90.75
50434;BME280;36361;38.954;-9.002;2023-01-26T01:08:47;101875.81;;;7.13;92.22
50434;BME280;36361;38.954;-9.002;2023-01-26T01:09:48;101874.63;;;7.07;93.45
50434;BME280;36361;38.954;-9.002;2023-01-26T01:10:49;101875.59;;;6.98;93.97
50434;BME280;36361;38.954;-9.002;2023-01-26T01:11:50;101865.09;;;6.95;94.15
50434;BME280;36361;38.954;-9.002;2023-01-26T01:12:51;101863.06;;;6.97;94.49
50434;BME280;36361;38.954;-9.002;2023-01-26T01:13:52;101861.97;;;6.82;95.66
50434;BME280;36361;38.954;-9.002;2023-01-26T01:14:53;101861.47;;;7.29;93.43
50434;BME280;36361;38.954;-9.002;2023-01-26T01:15:54;101860.13;;;7.25;94.11
50434;BME280;36361;38.954;-9.002;2023-01-26T01:16:55;101857.09;;;7.36;94.23
50434;BME280;36361;38.954;-9.002;2023-01-26T01:17:56;101850.00;;;7.35;95.27
50434;BME280;36361;38.954;-9.002;2023-01-26T01:18:56;101846.75;;;7.23;94.12
50434;BME280;36361;38.954;-9.002;2023-01-26T01:20:01;101831.50;;;7.14;96.18
50434;BME280;36361;38.954;-9.002;2023-01-26T01:21:28;101845.16;;;6.96;95.51
50434;BME280;36361;38.954;-9.002;2023-01-26T01:22:31;101831.44;;;6.98;95.04
50434;BME280;36361;38.954;-9.002;2023-01-26T01:23:32;101843.13;;;6.98;94.69
50434;BME280;36361;38.954;-9.002;2023-01-26T01:24:33;101833.34;;;7.05;94.81
50434;BME280;36361;38.954;-9.002;2023-01-26T01:25:34;101834.34;;;7.12;94.76
50434;BME280;36361;38.954;-9.002;2023-01-26T01:26:35;101833.34;;;7.22;94.73
50434;BME280;36361;38.954;-9.002;2023-01-26T01:27:36;101827.25;;;7.11;95.37
50434;BME280;36361;38.954;-9.002;2023-01-26T01:28:37;101829.84;;;6.79;96.72
50434;BME280;36361;38.954;-9.002;2023-01-26T01:29:38;101830.53;;;6.81;97.75
50434;BME280;36361;38.954;-9.002;2023-01-26T01:30:38;101827.91;;;6.63;100.00
50434;BME280;36361;38.954;-9.002;2023-01-26T01:31:39;101823.03;;;6.75;100.00
50434;BME280;36361;38.954;-9.002;2023-01-26T01:32:46;101818.78;;;6.64;100.00
50434;BME280;36361;38.954;-9.002;2023-01-26T01:33:52;101827.44;;;6.76;100.00
50434;BME280;36361;38.954;-9.002;2023-01-26T01:34:53;101824.66;;;6.51;100.00
50434;BME280;36361;38.954;-9.002;2023-01-26T01:35:59;101834.06;;;6.47;100.00
50434;BME280;36361;38.954;-9.002;2023-01-26T01:37:03;101821.16;;;6.33;100.00
50434;BME280;36361;38.954;-9.002;2023-01-26T01:38:05;101827.25;;;6.35;100.00
50434;BME280;36361;38.954;-9.002;2023-01-26T01:39:05;101827.63;;;6.40;100.00
50434;BME280;36361;38.954;-9.002;2023-01-26T01:40:11;101825.06;;;6.39;100.00
50434;BME280;36361;38.954;-9.002;2023-01-26T01:41:14;101828.25;;;6.34;100.00
50434;BME280;36361;38.954;-9.002;2023-01-26T01:42:15;101830.78;;;6.36;100.00
50434;BME280;36361;38.954;-9.002;2023-01-26T01:43:16;101830.28;;;6.32;100.00
50434;BME280;36361;38.954;-9.002;2023-01-26T01:44:22;101829.38;;;6.57;100.00
50434;BME280;36361;38.954;-9.002;2023-01-26T01:46:31;101833.69;;;6.68;100.00
50434;BME280;36361;38.954;-9.002;2023-01-26T01:47:33;101840.84;;;6.77;100.00
50434;BME280;36361;38.954;-9.002;2023-01-26T01:49:52;101830.84;;;6.18;100.00
50434;BME280;36361;38.954;-9.002;2023-01-26T01:50:57;101835.34;;;6.09;100.00
50434;BME280;36361;38.954;-9.002;2023-01-26T01:52:10;101835.56;;;6.16;100.00
50434;BME280;36361;38.954;-9.002;2023-01-26T01:53:17;101845.63;;;6.57;100.00
50434;BME280;36361;38.954;-9.002;2023-01-26T01:54:49;101845.16;;;6.62;100.00
50434;BME280;36361;38.954;-9.002;2023-01-26T01:55:54;101847.84;;;6.62;100.00
50434;BME280;36361;38.954;-9.002;2023-01-26T01:56:59;101836.94;;;6.46;100.00
50434;BME280;36361;38.954;-9.002;2023-01-26T01:58:03;101836.53;;;6.59;100.00
50434;BME280;36361;38.954;-9.002;2023-01-26T01:59:07;101837.50;;;6.57;100.00
50434;BME280;36361;38.954;-9.002;2023-01-26T02:00:11;101838.94;;;6.70;100.00
50434;BME280;36361;38.954;-9.002;2023-01-26T02:01:16;101839.78;;;6.70;100.00
50434;BME280;36361;38.954;-9.002;2023-01-26T02:02:17;101839.19;;;6.50;100.00
50434;BME280;36361;38.954;-9.002;2023-01-26T02:03:18;101830.09;;;6.60;100.00
50434;BME280;36361;38.954;-9.002;2023-01-26T02:04:21;101836.81;;;6.55;100.00
50434;BME280;36361;38.954;-9.002;2023-01-26T02:05:32;101837.91;;;6.71;100.00
50434;BME280;36361;38.954;-9.002;2023-01-26T02:06:38;101841.22;;;6.56;100.00
50434;BME280;36361;38.954;-9.002;2023-01-26T02:07:40;101834.06;;;6.47;100.00
50434;BME280;36361;38.954;-9.002;2023-01-26T02:09:44;101834.63;;;6.51;100.00
50434;BME280;36361;38.954;-9.002;2023-01-26T02:11:10;101827.50;;;6.50;100.00
50434;BME280;36361;38.954;-9.002;2023-01-26T02:12:13;101829.31;;;6.41;100.00
50434;BME280;36361;38.954;-9.002;2023-01-26T02:13:17;101830.69;;;6.45;100.00
50434;BME280;36361;38.954;-9.002;2023-01-26T02:14:18;101820.38;;;6.49;100.00
50434;BME280;36361;38.954;-9.002;2023-01-26T02:15:19;101823.97;;;6.57;100.00
50434;BME280;36361;38.954;-9.002;2023-01-26T02:16:20;101818.25;;;6.61;100.00
50434;BME280;36361;38.954;-9.002;2023-01-26T02:17:21;101819.56;;;6.22;100.00
50434;BME280;36361;38.954;-9.002;2023-01-26T02:18:22;101823.47;;;6.28;100.00
50434;BME280;36361;38.954;-9.002;2023-01-26T02:21:05;101823.47;;;6.28;100.00
50434;BME280;36361;38.954;-9.002;2023-01-26T02:22:41;101815.06;;;6.31;100.00
50434;BME280;36361;38.954;-9.002;2023-01-26T02:24:58;101822.00;;;6.08;100.00
50434;BME280;36361;38.954;-9.002;2023-01-26T02:26:11;101817.69;;;5.79;100.00
50434;BME280;36361;38.954;-9.002;2023-01-26T02:27:12;101810.28;;;5.81;100.00
50434;BME280;36361;38.954;-9.002;2023-01-26T02:28:13;101812.06;;;5.90;100.00
50434;BME280;36361;38.954;-9.002;2023-01-26T02:29:14;101811.28;;;5.98;100.00
50434;BME280;36361;38.954;-9.002;2023-01-26T02:30:17;101816.47;;;5.91;100.00
50434;BME280;36361;38.954;-9.002;2023-01-26T02:31:26;101816.16;;;5.94;100.00
50434;BME280;36361;38.954;-9.002;2023-01-26T02:32:32;101810.00;;;6.10;100.00
50434;BME280;36361;38.954;-9.002;2023-01-26T02:33:36;101813.47;;;5.94;100.00
50434;BME280;36361;38.954;-9.002;2023-01-26T02:34:54;101809.06;;;6.19;100.00
50434;BME280;36361;38.954;-9.002;2023-01-26T02:35:55;101808.47;;;6.08;100.00
50434;BME280;36361;38.954;-9.002;2023-01-26T02:36:58;101818.44;;;5.89;100.00
50434;BME280;36361;38.954;-9.002;2023-01-26T02:37:59;101812.88;;;6.09;100.00
50434;BME280;36361;38.954;-9.002;2023-01-26T02:40:44;101810.44;;;5.97;100.00
50434;BME280;36361;38.954;-9.002;2023-01-26T02:41:49;101800.16;;;5.83;100.00
50434;BME280;36361;38.954;-9.002;2023-01-26T02:43:16;101807.91;;;5.96;100.00
50434;BME280;36361;38.954;-9.002;2023-01-26T02:44:18;101804.03;;;5.98;100.00
50434;BME280;36361;38.954;-9.002;2023-01-26T02:45:20;101802.41;;;6.06;100.00
50434;BME280;36361;38.954;-9.002;2023-01-26T02:46:21;101796.81;;;6.07;100.00
50434;BME280;36361;38.954;-9.002;2023-01-26T02:47:22;101795.91;;;5.98;100.00
50434;BME280;36361;38.954;-9.002;2023-01-26T02:48:22;101793.59;;;6.04;100.00
50434;BME280;36361;38.954;-9.002;2023-01-26T02:49:42;101793.59;;;6.04;100.00
50434;BME280;36361;38.954;-9.002;2023-01-26T02:50:53;101803.13;;;6.16;100.00
50434;BME280;36361;38.954;-9.002;2023-01-26T02:51:54;101795.72;;;6.18;100.00
50434;BME280;36361;38.954;-9.002;2023-01-26T02:52:56;101790.53;;;6.24;100.00
50434;BME280;36361;38.954;-9.002;2023-01-26T02:53:57;101799.94;;;6.20;100.00
50434;BME280;36361;38.954;-9.002;2023-01-26T02:54:58;101799.09;;;6.20;100.00
50434;BME280;36361;38.954;-9.002;2023-01-26T02:56:18;101792.00;;;6.19;100.00
50434;BME280;36361;38.954;-9.002;2023-01-26T02:57:18;101802.91;;;6.35;100.00
50434;BME280;36361;38.954;-9.002;2023-01-26T02:58:19;101799.81;;;6.30;100.00
50434;BME280;36361;38.954;-9.002;2023-01-26T02:59:21;101799.53;;;6.33;100.00
50434;BME280;36361;38.954;-9.002;2023-01-26T03:00:30;101804.94;;;6.33;100.00
50434;BME280;36361;38.954;-9.002;2023-01-26T03:01:31;101796.44;;;6.28;100.00
50434;BME280;36361;38.954;-9.002;2023-01-26T03:02:32;101801.16;;;6.26;100.00
50434;BME280;36361;38.954;-9.002;2023-01-26T03:03:33;101798.34;;;6.36;100.00
50434;BME280;36361;38.954;-9.002;2023-01-26T03:04:44;101796.53;;;6.44;100.00
50434;BME280;36361;38.954;-9.002;2023-01-26T03:05:45;101784.38;;;6.48;100.00
50434;BME280;36361;38.954;-9.002;2023-01-26T03:06:46;101785.16;;;6.75;100.00
50434;BME280;36361;38.954;-9.002;2023-01-26T03:07:47;101781.16;;;6.79;100.00
50434;BME280;36361;38.954;-9.002;2023-01-26T03:08:49;101780.13;;;6.80;100.00
50434;BME280;36361;38.954;-9.002;2023-01-26T03:09:49;101779.41;;;6.70;100.00
50434;BME280;36361;38.954;-9.002;2023-01-26T03:10:50;101783.19;;;6.85;100.00
50434;BME280;36361;38.954;-9.002;2023-01-26T03:11:51;101780.47;;;6.77;100.00
50434;BME280;36361;38.954;-9.002;2023-01-26T03:12:52;101784.91;;;6.86;100.00
50434;BME280;36361;38.954;-9.002;2023-01-26T03:13:53;101790.16;;;6.96;100.00
50434;BME280;36361;38.954;-9.002;2023-01-26T03:14:54;101785.25;;;6.99;100.00
50434;BME280;36361;38.954;-9.002;2023-01-26T03:16:13;101784.22;;;6.92;100.00
50434;BME280;36361;38.954;-9.002;2023-01-26T03:17:18;101781.16;;;6.79;100.00
50434;BME280;36361;38.954;-9.002;2023-01-26T03:18:21;101769.97;;;6.74;100.00
50434;BME280;36361;38.954;-9.002;2023-01-26T03:19:40;101771.34;;;6.78;100.00
50434;BME280;36361;38.954;-9.002;2023-01-26T03:21:02;101772.66;;;6.74;100.00
50434;BME280;36361;38.954;-9.002;2023-01-26T03:22:22;101758.34;;;6.90;98.51
50434;BME280;36361;38.954;-9.002;2023-01-26T03:23:41;101764.66;;;7.06;96.31
50434;BME280;36361;38.954;-9.002;2023-01-26T03:25:01;101755.88;;;7.21;95.13
50434;BME280;36361;38.954;-9.002;2023-01-26T03:26:22;101756.91;;;7.28;94.22
50434;BME280;36361;38.954;-9.002;2023-01-26T03:27:44;101761.28;;;7.21;95.92
50434;BME280;36361;38.954;-9.002;2023-01-26T03:28:46;101760.97;;;7.24;96.14
50434;BME280;36361;38.954;-9.002;2023-01-26T03:29:47;101757.19;;;7.08;96.40
50434;BME280;36361;38.954;-9.002;2023-01-26T03:30:49;101765.31;;;7.00;96.65
50434;BME280;36361;38.954;-9.002;2023-01-26T03:31:52;101757.91;;;7.19;95.66
50434;BME280;36361;38.954;-9.002;2023-01-26T03:32:52;101755.19;;;7.27;94.38
50434;BME280;36361;38.954;-9.002;2023-01-26T03:33:53;101753.00;;;7.30;93.79
50434;BME280;36361;38.954;-9.002;2023-01-26T03:34:54;101749.13;;;7.25;94.19
50434;BME280;36361;38.954;-9.002;2023-01-26T03:35:57;101752.16;;;7.38;92.33
50434;BME280;36361;38.954;-9.002;2023-01-26T03:36:58;101755.06;;;7.53;89.26
50434;BME280;36361;38.954;-9.002;2023-01-26T03:38:03;101751.16;;;7.55;89.72
50434;BME280;36361;38.954;-9.002;2023-01-26T03:39:16;101743.69;;;7.65;88.19
50434;BME280;36361;38.954;-9.002;2023-01-26T03:40:36;101746.94;;;7.61;87.36
50434;BME280;36361;38.954;-9.002;2023-01-26T03:41:56;101741.66;;;7.76;86.35
50434;BME280;36361;38.954;-9.002;2023-01-26T03:43:15;101736.59;;;7.64;87.09
50434;BME280;36361;38.954;-9.002;2023-01-26T03:44:34;101741.34;;;7.62;86.98
50434;BME280;36361;38.954;-9.002;2023-01-26T03:45:53;101736.94;;;7.53;88.72
50434;BME280;36361;38.954;-9.002;2023-01-26T03:47:14;101733.03;;;7.56;87.49
50434;BME280;36361;38.954;-9.002;2023-01-26T03:48:33;101733.22;;;7.70;85.26
50434;BME280;36361;38.954;-9.002;2023-01-26T03:49:52;101723.72;;;7.66;87.81
50434;BME280;36361;38.954;-9.002;2023-01-26T03:51:11;101711.53;;;7.70;86.27
50434;BME280;36361;38.954;-9.002;2023-01-26T03:52:32;101719.66;;;7.79;85.15
50434;BME280;36361;38.954;-9.002;2023-01-26T03:53:51;101714.91;;;7.56;86.67
50434;BME280;36361;38.954;-9.002;2023-01-26T03:55:11;101714.75;;;7.58;87.07
50434;BME280;36361;38.954;-9.002;2023-01-26T03:56:29;101707.50;;;7.50;86.42
50434;BME280;36361;38.954;-9.002;2023-01-26T03:57:38;101713.56;;;7.36;86.59
50434;BME280;36361;38.954;-9.002;2023-01-26T03:58:39;101711.53;;;7.38;85.90
50434;BME280;36361;38.954;-9.002;2023-01-26T03:59:40;101715.63;;;7.42;85.34
50434;BME280;36361;38.954;-9.002;2023-01-26T04:00:48;101716.13;;;7.54;84.94
50434;BME280;36361;38.954;-9.002;2023-01-26T04:01:48;101717.13;;;7.53;85.16
50434;BME280;36361;38.954;-9.002;2023-01-26T04:03:09;101716.28;;;7.52;84.76
50434;BME280;36361;38.954;-9.002;2023-01-26T04:04:31;101712.22;;;7.56;86.08
50434;BME280;36361;38.954;-9.002;2023-01-26T04:05:51;101718.81;;;7.46;86.66
50434;BME280;36361;38.954;-9.002;2023-01-26T04:07:15;101724.72;;;7.74;83.49
50434;BME280;36361;38.954;-9.002;2023-01-26T04:08:36;101716.22;;;7.85;82.67
50434;BME280;36361;38.954;-9.002;2023-01-26T04:09:38;101718.63;;;7.72;83.69
50434;BME280;36361;38.954;-9.002;2023-01-26T04:10:43;101713.88;;;7.74;83.04
50434;BME280;36361;38.954;-9.002;2023-01-26T04:11:44;101714.25;;;7.62;84.68
50434;BME280;36361;38.954;-9.002;2023-01-26T04:12:45;101707.81;;;7.63;84.51
50434;BME280;36361;38.954;-9.002;2023-01-26T04:14:10;101723.03;;;7.73;83.34
50434;BME280;36361;38.954;-9.002;2023-01-26T04:15:30;101720.16;;;7.58;84.71
50434;BME280;36361;38.954;-9.002;2023-01-26T04:16:49;101722.50;;;7.85;82.19
50434;BME280;36361;38.954;-9.002;2023-01-26T04:18:08;101719.66;;;7.70;82.01
50434;BME280;36361;38.954;-9.002;2023-01-26T04:19:29;101725.91;;;7.87;81.36
50434;BME280;36361;38.954;-9.002;2023-01-26T04:20:48;101720.63;;;7.94;80.39
50434;BME280;36361;38.954;-9.002;2023-01-26T04:22:08;101715.91;;;7.88;79.12
50434;BME280;36361;38.954;-9.002;2023-01-26T04:23:17;101724.03;;;7.88;78.62
50434;BME280;36361;38.954;-9.002;2023-01-26T04:24:19;101713.53;;;7.77;78.36
50434;BME280;36361;38.954;-9.002;2023-01-26T04:25:25;101721.66;;;7.85;77.94
50434;BME280;36361;38.954;-9.002;2023-01-26T04:26:30;101710.78;;;8.01;77.25
50434;BME280;36361;38.954;-9.002;2023-01-26T04:27:40;101711.78;;;8.08;76.53
50434;BME280;36361;38.954;-9.002;2023-01-26T04:28:41;101711.13;;;8.06;76.55
50434;BME280;36361;38.954;-9.002;2023-01-26T04:29:42;101710.13;;;7.99;76.01
50434;BME280;36361;38.954;-9.002;2023-01-26T04:30:42;101704.31;;;8.10;75.33
50434;BME280;36361;38.954;-9.002;2023-01-26T04:31:44;101694.53;;;8.01;77.61
50434;BME280;36361;38.954;-9.002;2023-01-26T04:32:49;101700.59;;;8.03;78.70
50434;BME280;36361;38.954;-9.002;2023-01-26T04:33:52;101689.44;;;7.98;77.14
50434;BME280;36361;38.954;-9.002;2023-01-26T04:34:53;101691.81;;;7.93;76.34
50434;BME280;36361;38.954;-9.002;2023-01-26T04:36:01;101687.06;;;7.95;76.61
50434;BME280;36361;38.954;-9.002;2023-01-26T04:37:02;101682.66;;;7.94;78.01
50434;BME280;36361;38.954;-9.002;2023-01-26T04:38:15;101682.66;;;7.94;78.18
50434;BME280;36361;38.954;-9.002;2023-01-26T04:39:16;101682.53;;;7.87;78.62
50434;BME280;36361;38.954;-9.002;2023-01-26T04:40:21;101686.72;;;8.06;77.57
50434;BME280;36361;38.954;-9.002;2023-01-26T04:41:23;101677.22;;;8.10;77.12
50434;BME280;36361;38.954;-9.002;2023-01-26T04:42:33;101676.19;;;8.11;79.69
50434;BME280;36361;38.954;-9.002;2023-01-26T04:43:35;101680.09;;;8.09;78.45
50434;BME280;36361;38.954;-9.002;2023-01-26T04:44:36;101685.53;;;8.09;78.36
50434;BME280;36361;38.954;-9.002;2023-01-26T04:45:38;101676.59;;;7.92;79.99
50434;BME280;36361;38.954;-9.002;2023-01-26T04:46:40;101677.88;;;8.12;82.93
50434;BME280;36361;38.954;-9.002;2023-01-26T04:47:41;101677.56;;;8.07;81.27
50434;BME280;36361;38.954;-9.002;2023-01-26T04:48:42;101667.84;;;8.21;81.45
50434;BME280;36361;38.954;-9.002;2023-01-26T04:49:43;101665.22;;;8.52;81.69
50434;BME280;36361;38.954;-9.002;2023-01-26T04:50:52;101677.53;;;8.63;82.41
50434;BME280;36361;38.954;-9.002;2023-01-26T04:51:54;101667.59;;;9.01;80.28
50434;BME280;36361;38.954;-9.002;2023-01-26T04:52:55;101670.53;;;9.14;78.90
50434;BME280;36361;38.954;-9.002;2023-01-26T04:53:57;101673.66;;;9.49;78.23
50434;BME280;36361;38.954;-9.002;2023-01-26T04:54:58;101671.09;;;9.70;77.01
50434;BME280;36361;38.954;-9.002;2023-01-26T04:55:59;101660.31;;;9.24;80.20
50434;BME280;36361;38.954;-9.002;2023-01-26T04:57:01;101672.34;;;9.22;81.73
50434;BME280;36361;38.954;-9.002;2023-01-26T04:58:01;101668.19;;;9.11;82.47
50434;BME280;36361;38.954;-9.002;2023-01-26T04:59:05;101674.78;;;8.94;83.36
50434;BME280;36361;38.954;-9.002;2023-01-26T05:00:08;101669.34;;;8.94;83.34
50434;BME280;36361;38.954;-9.002;2023-01-26T05:01:11;101678.69;;;8.91;83.02
50434;BME280;36361;38.954;-9.002;2023-01-26T05:02:12;101668.91;;;8.82;83.69
50434;BME280;36361;38.954;-9.002;2023-01-26T05:03:13;101669.09;;;8.80;84.75
50434;BME280;36361;38.954;-9.002;2023-01-26T05:04:15;101663.50;;;8.51;86.53
50434;BME280;36361;38.954;-9.002;2023-01-26T05:05:19;101668.44;;;8.47;86.76
50434;BME280;36361;38.954;-9.002;2023-01-26T05:06:20;101667.03;;;8.60;87.14
50434;BME280;36361;38.954;-9.002;2023-01-26T05:07:22;101666.66;;;8.63;87.80
50434;BME280;36361;38.954;-9.002;2023-01-26T05:08:24;101653.66;;;8.81;88.19
50434;BME280;36361;38.954;-9.002;2023-01-26T05:09:24;101657.34;;;8.57;90.79
50434;BME280;36361;38.954;-9.002;2023-01-26T05:10:43;101660.41;;;8.23;94.73
50434;BME280;36361;38.954;-9.002;2023-01-26T05:12:13;101657.44;;;8.41;95.22
50434;BME280;36361;38.954;-9.002;2023-01-26T05:13:51;101648.81;;;8.29;97.19
50434;BME280;36361;38.954;-9.002;2023-01-26T05:15:21;101644.63;;;8.58;94.96
50434;BME280;36361;38.954;-9.002;2023-01-26T05:16:48;101652.53;;;8.44;97.50
50434;BME280;36361;38.954;-9.002;2023-01-26T05:17:59;101651.97;;;8.49;99.36
50434;BME280;36361;38.954;-9.002;2023-01-26T05:19:19;101646.25;;;8.44;99.32
50434;BME280;36361;38.954;-9.002;2023-01-26T05:20:26;101647.53;;;8.56;98.99
50434;BME280;36361;38.954;-9.002;2023-01-26T05:21:37;101637.34;;;8.58;98.29
50434;BME280;36361;38.954;-9.002;2023-01-26T05:22:37;101646.41;;;8.50;98.61
50434;BME280;36361;38.954;-9.002;2023-01-26T05:24:09;101638.78;;;8.46;99.23
50434;BME280;36361;38.954;-9.002;2023-01-26T05:25:13;101638.16;;;8.36;100.00
50434;BME280;36361;38.954;-9.002;2023-01-26T05:26:25;101639.88;;;8.20;100.00
50434;BME280;36361;38.954;-9.002;2023-01-26T05:27:33;101633.00;;;8.02;100.00
50434;BME280;36361;38.954;-9.002;2023-01-26T05:28:36;101636.25;;;7.97;100.00
50434;BME280;36361;38.954;-9.002;2023-01-26T05:29:43;101627.81;;;7.84;100.00
50434;BME280;36361;38.954;-9.002;2023-01-26T05:30:46;101639.31;;;7.86;100.00
50434;BME280;36361;38.954;-9.002;2023-01-26T05:31:47;101627.41;;;8.03;100.00
50434;BME280;36361;38.954;-9.002;2023-01-26T05:32:49;101629.31;;;7.94;100.00
50434;BME280;36361;38.954;-9.002;2023-01-26T05:33:56;101633.59;;;7.81;100.00
50434;BME280;36361;38.954;-9.002;2023-01-26T05:35:05;101625.41;;;7.97;100.00
50434;BME280;36361;38.954;-9.002;2023-01-26T05:36:07;101624.41;;;7.98;100.00
50434;BME280;36361;38.954;-9.002;2023-01-26T05:37:08;101620.47;;;8.01;100.00
50434;BME280;36361;38.954;-9.002;2023-01-26T05:38:18;101616.50;;;8.19;100.00
50434;BME280;36361;38.954;-9.002;2023-01-26T05:39:21;101616.03;;;8.16;100.00
50434;BME280;36361;38.954;-9.002;2023-01-26T05:40:22;101616.66;;;8.26;100.00
50434;BME280;36361;38.954;-9.002;2023-01-26T05:41:24;101614.84;;;8.10;100.00
50434;BME280;36361;38.954;-9.002;2023-01-26T05:42:49;101607.78;;;8.01;100.00
50434;BME280;36361;38.954;-9.002;2023-01-26T05:43:57;101611.00;;;8.05;100.00
50434;BME280;36361;38.954;-9.002;2023-01-26T05:45:09;101619.13;;;8.05;100.00
50434;BME280;36361;38.954;-9.002;2023-01-26T05:46:12;101611.78;;;8.13;100.00
50434;BME280;36361;38.954;-9.002;2023-01-26T05:47:16;101618.56;;;8.17;100.00
50434;BME280;36361;38.954;-9.002;2023-01-26T05:48:20;101610.31;;;8.03;100.00
50434;BME280;36361;38.954;-9.002;2023-01-26T05:49:24;101608.13;;;7.98;100.00
50434;BME280;36361;38.954;-9.002;2023-01-26T05:50:26;101623.44;;;8.22;100.00